Time;durP1;ratioP1;P1;durP2;ratioP2;P2;SDS_P1;SDS_P2;PMS_P1;PMS_P2;Temp;Humidity;BMP_temperature;BMP_pressure;BME280_temperature;BME280_humidity;BME280_pressure;Samples;Min_cycle;Max_cycle;Signal;HPM_P1;HPM_P2
2024/02/19 00:01:51;;;;;;;40.33;26.85;;;;;;;;;;10420188;27;20074;-61
2024/02/19 00:06:50;;;;;;;40.53;26.15;;;;;;;;;;10418957;27;20071;-61
2024/02/19 00:11:48;;;;;;;37.15;25.88;;;;;;;;;;10423587;27;20062;-62
2024/02/19 00:16:48;;;;;;;36.83;24.52;;;;;;;;;;10422547;27;20528;-61
2024/02/19 00:21:46;;;;;;;38.15;26.10;;;;;;;;;;10416696;27;20106;-61
2024/02/19 00:26:45;;;;;;;39.03;27.58;;;;;;;;;;10418158;27;20060;-61
2024/02/19 00:31:44;;;;;;;40.05;28.10;;;;;;;;;;10414406;27;20067;-61
2024/02/19 00:36:44;;;;;;;39.42;28.00;;;;;;;;;;10401144;27;20071;-61
2024/02/19 00:41:42;;;;;;;42.85;26.90;;;;;;;;;;10418061;27;20108;-61
2024/02/19 00:46:41;;;;;;;40.92;28.25;;;;;;;;;;10420435;27;21463;-61
2024/02/19 00:51:39;;;;;;;38.92;28.08;;;;;;;;;;10412685;27;20090;-62
2024/02/19 00:56:38;;;;;;;43.00;29.90;;;;;;;;;;10419104;27;20069;-62
2024/02/19 01:01:37;;;;;;;40.88;29.60;;;;;;;;;;10416882;27;20498;-62
2024/02/19 01:06:35;;;;;;;40.35;29.33;;;;;;;;;;10415416;27;20514;-61
2024/02/19 01:11:34;;;;;;;41.00;28.77;;;;;;;;;;10416900;27;20075;-62
2024/02/19 01:16:34;;;;;;;50.03;31.88;;;;;;;;;;10413533;27;20470;-62
2024/02/19 01:21:32;;;;;;;45.95;30.70;;;;;;;;;;10415131;27;20074;-62
2024/02/19 01:26:31;;;;;;;46.60;31.50;;;;;;;;;;10416827;27;20071;-62
2024/02/19 01:31:29;;;;;;;45.53;30.67;;;;;;;;;;10414286;27;20472;-62
2024/02/19 01:36:28;;;;;;;44.67;29.67;;;;;;;;;;10416526;27;20070;-63
2024/02/19 01:41:27;;;;;;;48.38;31.90;;;;;;;;;;10413580;27;20495;-62
2024/02/19 01:46:25;;;;;;;47.40;30.60;;;;;;;;;;10419048;27;20081;-62
2024/02/19 01:51:24;;;;;;;45.95;30.45;;;;;;;;;;10412927;27;20544;-63
2024/02/19 01:56:24;;;;;;;46.72;34.15;;;;;;;;;;10413902;27;20071;-63
2024/02/19 02:01:22;;;;;;;48.30;32.63;;;;;;;;;;10416132;27;20496;-63
2024/02/19 02:06:22;;;;;;;46.63;31.58;;;;;;;;;;10407277;27;20063;-60
2024/02/19 02:11:21;;;;;;;52.50;32.28;;;;;;;;;;10411576;27;20079;-63
2024/02/19 02:16:26;;;;;;;43.35;30.50;;;;;;;;;;10411761;27;20625;-62
2024/02/19 02:21:24;;;;;;;46.80;32.92;;;;;;;;;;10410947;28;20079;-62
2024/02/19 02:26:22;;;;;;;44.10;29.85;;;;;;;;;;10413209;28;20075;-62
2024/02/19 02:31:22;;;;;;;42.30;28.90;;;;;;;;;;10412673;28;20082;-62
2024/02/19 02:36:22;;;;;;;40.63;26.42;;;;;;;;;;10414063;28;20071;-62
2024/02/19 02:41:21;;;;;;;41.95;27.50;;;;;;;;;;10416980;27;20074;-62
2024/02/19 02:46:19;;;;;;;40.25;26.10;;;;;;;;;;10421012;27;20103;-62
2024/02/19 02:51:20;;;;;;;40.60;29.00;;;;;;;;;;10423318;27;20071;-62
2024/02/19 02:56:20;;;;;;;36.25;25.63;;;;;;;;;;10398578;27;20075;-61
2024/02/19 03:01:20;;;;;;;38.85;25.38;;;;;;;;;;10418311;27;20082;-62
2024/02/19 03:06:20;;;;;;;36.95;26.35;;;;;;;;;;10422456;27;20625;-62
2024/02/19 03:11:18;;;;;;;36.72;25.88;;;;;;;;;;10421101;27;20067;-62
2024/02/19 03:16:17;;;;;;;40.17;27.38;;;;;;;;;;10414691;27;20083;-62
2024/02/19 03:21:17;;;;;;;33.58;23.63;;;;;;;;;;10419755;27;20074;-62
2024/02/19 03:26:16;;;;;;;31.42;22.85;;;;;;;;;;10420583;27;20552;-63
2024/02/19 03:31:24;;;;;;;32.70;22.63;;;;;;;;;;10423488;27;20070;-61
2024/02/19 03:36:22;;;;;;;34.00;23.85;;;;;;;;;;10422324;27;20074;-61
2024/02/19 03:41:22;;;;;;;41.40;25.30;;;;;;;;;;10415252;27;20086;-63
2024/02/19 03:46:20;;;;;;;34.30;25.20;;;;;;;;;;10423926;27;20504;-63
2024/02/19 03:51:19;;;;;;;34.80;24.55;;;;;;;;;;10417419;27;20071;-61
2024/02/19 03:56:17;;;;;;;31.30;23.20;;;;;;;;;;10417458;27;20102;-62
2024/02/19 04:01:17;;;;;;;38.28;24.25;;;;;;;;;;10420648;27;20060;-62
2024/02/19 04:06:16;;;;;;;33.42;22.63;;;;;;;;;;10418610;27;20515;-62
2024/02/19 04:11:15;;;;;;;32.05;22.02;;;;;;;;;;10421833;27;20058;-62
2024/02/19 04:16:13;;;;;;;30.35;21.15;;;;;;;;;;10401270;27;20071;-61
2024/02/19 04:21:13;;;;;;;27.13;20.02;;;;;;;;;;10415800;27;20063;-62
2024/02/19 04:26:12;;;;;;;27.55;19.33;;;;;;;;;;10412556;27;20075;-61
2024/02/19 04:31:10;;;;;;;29.85;18.92;;;;;;;;;;10421445;27;20750;-62
2024/02/19 04:36:09;;;;;;;32.45;20.05;;;;;;;;;;10419942;27;20074;-62
2024/02/19 04:41:08;;;;;;;24.33;17.88;;;;;;;;;;10416973;27;20067;-61
2024/02/19 04:46:06;;;;;;;24.90;15.75;;;;;;;;;;10408976;27;20091;-60
2024/02/19 04:51:05;;;;;;;18.15;14.15;;;;;;;;;;10416079;27;20067;-61
2024/02/19 04:56:04;;;;;;;17.42;12.75;;;;;;;;;;10412278;27;20498;-62
2024/02/19 05:01:03;;;;;;;14.70;10.68;;;;;;;;;;10414242;27;20520;-61
2024/02/19 05:06:02;;;;;;;15.38;11.18;;;;;;;;;;10407418;27;20059;-61
2024/02/19 05:11:01;;;;;;;13.27;8.77;;;;;;;;;;10409228;27;20086;-61
2024/02/19 05:15:59;;;;;;;10.52;8.30;;;;;;;;;;10418061;27;20093;-61
2024/02/19 05:21:00;;;;;;;9.95;8.65;;;;;;;;;;10414862;27;20089;-62
2024/02/19 05:25:59;;;;;;;11.20;6.97;;;;;;;;;;10413220;27;20071;-61
2024/02/19 05:30:57;;;;;;;10.43;8.27;;;;;;;;;;10414516;27;20077;-61
2024/02/19 05:35:55;;;;;;;7.68;6.88;;;;;;;;;;10417823;27;20066;-62
2024/02/19 05:40:55;;;;;;;9.35;7.45;;;;;;;;;;10396035;27;20497;-60
2024/02/19 05:45:53;;;;;;;7.28;6.10;;;;;;;;;;10415964;27;20503;-60
2024/02/19 05:50:51;;;;;;;10.68;7.97;;;;;;;;;;10413662;27;20074;-61
2024/02/19 05:55:50;;;;;;;10.25;7.70;;;;;;;;;;10416831;27;20093;-62
2024/02/19 06:00:49;;;;;;;8.90;7.60;;;;;;;;;;10412234;27;20066;-62
2024/02/19 06:05:48;;;;;;;7.70;6.50;;;;;;;;;;10416103;27;20082;-61
2024/02/19 06:10:46;;;;;;;12.13;10.70;;;;;;;;;;10414954;27;20072;-62
2024/02/19 06:15:44;;;;;;;7.97;7.03;;;;;;;;;;10415655;27;20067;-62
2024/02/19 06:20:44;;;;;;;13.65;6.22;;;;;;;;;;10418986;27;20078;-62
2024/02/19 06:25:43;;;;;;;7.78;7.00;;;;;;;;;;10412920;28;20062;-62
2024/02/19 06:30:41;;;;;;;15.07;8.13;;;;;;;;;;10410239;28;20086;-62
2024/02/19 06:35:40;;;;;;;8.35;6.97;;;;;;;;;;10413669;28;20082;-62
2024/02/19 06:40:39;;;;;;;7.55;6.72;;;;;;;;;;10416066;28;20066;-62
2024/02/19 06:45:37;;;;;;;9.00;7.20;;;;;;;;;;10416082;28;20071;-62
2024/02/19 06:50:36;;;;;;;11.80;7.88;;;;;;;;;;10414614;28;20058;-63
2024/02/19 06:55:34;;;;;;;25.77;16.83;;;;;;;;;;10417355;28;21891;-61
2024/02/19 07:00:34;;;;;;;11.15;9.10;;;;;;;;;;10411689;28;20074;-62
2024/02/19 07:05:32;;;;;;;15.27;10.80;;;;;;;;;;10413128;27;20079;-63
2024/02/19 07:10:30;;;;;;;11.25;6.40;;;;;;;;;;10411569;27;20078;-62
2024/02/19 07:15:29;;;;;;;8.93;6.97;;;;;;;;;;10413589;28;20079;-62
2024/02/19 07:20:28;;;;;;;10.93;6.85;;;;;;;;;;10412102;28;20090;-63
2024/02/19 07:25:26;;;;;;;9.80;8.80;;;;;;;;;;10411753;27;20647;-61
2024/02/19 07:30:25;;;;;;;11.98;7.07;;;;;;;;;;10407434;27;20574;-62
2024/02/19 07:35:23;;;;;;;10.65;7.78;;;;;;;;;;10416528;27;20520;-63
2024/02/19 07:40:23;;;;;;;9.82;6.55;;;;;;;;;;10415418;27;20075;-63
2024/02/19 07:45:21;;;;;;;8.77;7.43;;;;;;;;;;10416931;27;20074;-63
2024/02/19 07:50:20;;;;;;;7.28;6.00;;;;;;;;;;10418790;27;20110;-63
2024/02/19 07:55:18;;;;;;;9.57;6.30;;;;;;;;;;10420748;27;20074;-63
2024/02/19 08:00:18;;;;;;;10.73;6.35;;;;;;;;;;10421113;27;20147;-63
2024/02/19 08:05:16;;;;;;;5.45;4.85;;;;;;;;;;10422400;27;20070;-62
2024/02/19 08:10:15;;;;;;;7.97;5.00;;;;;;;;;;10414263;27;20070;-62
2024/02/19 08:15:14;;;;;;;15.85;10.60;;;;;;;;;;10416642;27;20071;-63
2024/02/19 08:20:13;;;;;;;8.57;5.60;;;;;;;;;;10418349;27;20083;-62
2024/02/19 08:25:11;;;;;;;9.32;6.22;;;;;;;;;;10420339;27;20529;-63
2024/02/19 08:30:10;;;;;;;9.02;6.30;;;;;;;;;;10414404;27;20071;-62
2024/02/19 08:35:09;;;;;;;6.22;5.63;;;;;;;;;;10418280;27;20074;-63
2024/02/19 08:40:09;;;;;;;19.95;12.10;;;;;;;;;;10417096;27;20075;-63
2024/02/19 08:45:08;;;;;;;11.77;7.57;;;;;;;;;;10419170;27;20075;-63
2024/02/19 08:50:07;;;;;;;6.60;5.82;;;;;;;;;;10413126;27;20072;-62
2024/02/19 08:55:06;;;;;;;8.48;5.35;;;;;;;;;;10415540;27;20090;-62
2024/02/19 09:00:07;;;;;;;7.18;6.32;;;;;;;;;;10414732;27;20067;-62
2024/02/19 09:05:05;;;;;;;6.70;4.63;;;;;;;;;;10411448;27;20078;-63
2024/02/19 09:10:04;;;;;;;6.88;6.15;;;;;;;;;;10412870;27;20476;-63
2024/02/19 09:15:04;;;;;;;9.20;6.28;;;;;;;;;;10419405;27;20082;-63
2024/02/19 09:20:06;;;;;;;6.07;5.45;;;;;;;;;;10415535;27;20485;-61
2024/02/19 09:25:05;;;;;;;6.75;5.93;;;;;;;;;;10416087;27;20075;-63
2024/02/19 09:30:04;;;;;;;6.20;5.60;;;;;;;;;;10415690;27;20083;-63
2024/02/19 09:35:05;;;;;;;6.70;5.57;;;;;;;;;;10415362;27;20074;-63
2024/02/19 09:40:04;;;;;;;8.43;6.22;;;;;;;;;;10415663;27;20834;-61
2024/02/19 09:45:03;;;;;;;8.43;7.53;;;;;;;;;;10411371;27;20090;-62
2024/02/19 09:50:02;;;;;;;8.45;5.95;;;;;;;;;;10414154;27;20055;-63
2024/02/19 09:55:02;;;;;;;5.78;5.10;;;;;;;;;;10412865;27;20066;-63
2024/02/19 10:00:04;;;;;;;9.73;6.45;;;;;;;;;;10414753;27;20066;-61
2024/02/19 10:05:11;;;;;;;9.33;8.10;;;;;;;;;;10414905;27;20124;-62
2024/02/19 10:10:14;;;;;;;9.43;5.60;;;;;;;;;;10419653;27;20074;-61
2024/02/19 10:15:13;;;;;;;7.30;5.90;;;;;;;;;;10404818;27;20077;-61
2024/02/19 10:20:11;;;;;;;15.45;9.90;;;;;;;;;;10416021;27;20495;-61
2024/02/19 10:25:12;;;;;;;13.13;10.55;;;;;;;;;;10417772;28;20133;-63
2024/02/19 10:30:13;;;;;;;18.25;10.95;;;;;;;;;;10418775;28;20082;-62
2024/02/19 10:35:11;;;;;;;6.75;6.03;;;;;;;;;;10413828;28;20355;-62
2024/02/19 10:40:12;;;;;;;7.45;5.35;;;;;;;;;;10416305;28;20086;-64
2024/02/19 10:45:12;;;;;;;7.18;6.35;;;;;;;;;;10413411;28;20406;-63
2024/02/19 10:50:10;;;;;;;5.75;5.15;;;;;;;;;;10417957;28;20508;-63
2024/02/19 10:55:10;;;;;;;6.82;5.18;;;;;;;;;;10413953;28;20099;-62
2024/02/19 11:00:16;;;;;;;7.03;6.20;;;;;;;;;;10419656;27;20059;-63
2024/02/19 11:05:15;;;;;;;7.45;4.88;;;;;;;;;;10424717;27;21124;-63
2024/02/19 11:10:13;;;;;;;6.03;5.47;;;;;;;;;;10431676;27;20070;-63
2024/02/19 11:15:17;;;;;;;17.15;8.65;;;;;;;;;;10433567;27;20059;-63
2024/02/19 11:20:24;;;;;;;32.65;22.63;;;;;;;;;;10428650;27;20098;-62
2024/02/19 11:25:23;;;;;;;6.95;5.72;;;;;;;;;;10421930;27;20074;-63
2024/02/19 11:30:24;;;;;;;20.00;12.90;;;;;;;;;;10421936;27;20500;-62
2024/02/19 11:35:22;;;;;;;25.90;17.02;;;;;;;;;;10420958;27;20086;-63
2024/02/19 11:40:21;;;;;;;5.70;5.20;;;;;;;;;;10427024;27;20512;-62
2024/02/19 11:45:19;;;;;;;8.90;5.82;;;;;;;;;;10426784;27;20094;-62
2024/02/19 11:50:23;;;;;;;7.78;6.70;;;;;;;;;;10421366;27;20069;-62
2024/02/19 11:55:23;;;;;;;7.80;5.97;;;;;;;;;;10426063;27;20073;-62
2024/02/19 12:00:22;;;;;;;6.50;5.80;;;;;;;;;;10427634;27;20071;-62
2024/02/19 12:05:22;;;;;;;8.10;6.60;;;;;;;;;;10428680;27;20083;-62
2024/02/19 12:10:20;;;;;;;6.22;5.63;;;;;;;;;;10426364;27;20096;-62
2024/02/19 12:15:20;;;;;;;8.77;6.35;;;;;;;;;;10417456;27;20071;-62
2024/02/19 12:20:18;;;;;;;6.35;5.75;;;;;;;;;;10423192;27;20081;-62
2024/02/19 12:25:18;;;;;;;12.85;8.05;;;;;;;;;;10421634;27;20067;-63
2024/02/19 12:30:16;;;;;;;5.68;5.18;;;;;;;;;;10427101;27;20075;-62
2024/02/19 12:35:19;;;;;;;8.82;7.25;;;;;;;;;;10419092;27;20525;-62
2024/02/19 12:40:19;;;;;;;11.23;9.20;;;;;;;;;;10422518;27;20571;-62
2024/02/19 12:45:18;;;;;;;10.15;8.02;;;;;;;;;;10420232;27;20079;-62
2024/02/19 12:50:17;;;;;;;14.20;11.95;;;;;;;;;;10425768;27;20067;-62
2024/02/19 12:55:15;;;;;;;14.25;11.02;;;;;;;;;;10423832;27;20078;-62
2024/02/19 13:00:18;;;;;;;16.67;8.60;;;;;;;;;;10424159;27;20066;-62
2024/02/19 13:05:17;;;;;;;12.27;9.60;;;;;;;;;;10425948;27;20070;-62
2024/02/19 13:10:15;;;;;;;30.17;26.20;;;;;;;;;;10423222;27;20067;-62
2024/02/19 13:15:14;;;;;;;8.23;7.13;;;;;;;;;;10422990;27;20063;-62
2024/02/19 13:20:14;;;;;;;7.78;6.97;;;;;;;;;;10424484;27;20082;-62
2024/02/19 13:25:14;;;;;;;7.97;7.10;;;;;;;;;;10420890;27;20069;-63
2024/02/19 13:30:13;;;;;;;6.88;6.07;;;;;;;;;;10416137;27;20515;-64
2024/02/19 13:35:11;;;;;;;12.52;8.68;;;;;;;;;;10413861;27;20520;-63
2024/02/19 13:40:12;;;;;;;9.75;8.75;;;;;;;;;;10418415;27;20469;-63
2024/02/19 13:45:11;;;;;;;7.68;6.95;;;;;;;;;;10418930;27;20089;-62
2024/02/19 13:50:11;;;;;;;8.27;7.47;;;;;;;;;;10426992;27;20464;-63
2024/02/19 13:55:10;;;;;;;6.88;5.93;;;;;;;;;;10398853;27;20094;-62
2024/02/19 14:00:10;;;;;;;7.53;6.53;;;;;;;;;;10419611;27;20463;-63
2024/02/19 14:05:10;;;;;;;7.28;5.90;;;;;;;;;;10406694;27;20469;-62
2024/02/19 14:10:08;;;;;;;8.23;7.32;;;;;;;;;;10420653;27;20071;-63
2024/02/19 14:15:07;;;;;;;7.57;6.45;;;;;;;;;;10420005;27;20481;-62
2024/02/19 14:20:10;;;;;;;12.38;9.25;;;;;;;;;;10417213;27;20074;-62
2024/02/19 14:25:11;;;;;;;10.15;8.23;;;;;;;;;;10418801;27;20071;-62
2024/02/19 14:30:10;;;;;;;11.77;8.88;;;;;;;;;;10420329;28;20094;-63
2024/02/19 14:35:12;;;;;;;20.33;14.10;;;;;;;;;;10418698;27;20071;-62
2024/02/19 14:40:13;;;;;;;20.25;17.42;;;;;;;;;;10427789;27;20074;-62
2024/02/19 14:45:12;;;;;;;22.27;15.35;;;;;;;;;;10430574;27;20447;-62
2024/02/19 14:50:12;;;;;;;16.05;14.20;;;;;;;;;;10426141;27;20547;-63
2024/02/19 14:55:11;;;;;;;50.72;36.67;;;;;;;;;;10424450;27;20074;-62
2024/02/19 15:00:20;;;;;;;21.10;16.85;;;;;;;;;;10431571;27;20144;-63
2024/02/19 15:05:22;;;;;;;22.10;17.33;;;;;;;;;;10408335;27;20082;-61
2024/02/19 15:10:24;;;;;;;21.73;16.77;;;;;;;;;;10428682;27;20083;-62
2024/02/19 15:15:23;;;;;;;12.88;10.73;;;;;;;;;;10423290;27;20067;-63
2024/02/19 15:20:23;;;;;;;11.43;9.38;;;;;;;;;;10429061;27;20091;-63
2024/02/19 15:25:21;;;;;;;10.60;8.93;;;;;;;;;;10408243;27;20459;-62
2024/02/19 15:30:22;;;;;;;22.70;16.98;;;;;;;;;;10428459;27;20071;-62
2024/02/19 15:35:25;;;;;;;17.25;12.90;;;;;;;;;;10426524;27;20515;-62
2024/02/19 15:40:23;;;;;;;18.40;12.57;;;;;;;;;;10429095;27;20070;-62
2024/02/19 15:45:21;;;;;;;15.85;13.95;;;;;;;;;;10423387;27;20082;-62
2024/02/19 15:50:20;;;;;;;25.33;17.98;;;;;;;;;;10419326;27;20086;-62
2024/02/19 15:55:20;;;;;;;20.95;16.60;;;;;;;;;;10423261;27;20071;-63
2024/02/19 16:00:21;;;;;;;13.38;10.65;;;;;;;;;;10424407;27;20067;-63
2024/02/19 16:05:20;;;;;;;15.45;12.00;;;;;;;;;;10422651;27;20551;-62
2024/02/19 16:10:20;;;;;;;16.42;11.63;;;;;;;;;;10421215;27;20552;-62
2024/02/19 16:15:20;;;;;;;11.70;9.38;;;;;;;;;;10422910;27;20500;-63
2024/02/19 16:20:18;;;;;;;10.35;8.00;;;;;;;;;;10425295;27;20164;-63
2024/02/19 16:25:18;;;;;;;14.18;8.73;;;;;;;;;;10425860;27;20637;-63
2024/02/19 16:30:21;;;;;;;12.93;9.80;;;;;;;;;;10416715;27;20079;-63
2024/02/19 16:35:20;;;;;;;14.40;10.52;;;;;;;;;;10423133;27;20089;-63
2024/02/19 16:40:25;;;;;;;11.68;10.20;;;;;;;;;;10423724;27;20067;-63
2024/02/19 16:45:37;;;;;;;15.13;12.77;;;;;;;;;;10412651;27;20460;-63
2024/02/19 16:56:32;;;;;;;23.08;17.88;;;;;;;;;;10404272;27;20086;-64
2024/02/19 17:01:31;;;;;;;17.40;13.02;;;;;;;;;;10424194;27;20130;-63
2024/02/19 17:06:31;;;;;;;12.88;11.38;;;;;;;;;;10421208;27;20089;-63
2024/02/19 17:11:32;;;;;;;18.48;13.60;;;;;;;;;;10417539;27;20066;-64
2024/02/19 17:16:33;;;;;;;17.95;13.20;;;;;;;;;;10421155;27;20066;-64
2024/02/19 17:21:32;;;;;;;15.00;12.00;;;;;;;;;;10420430;27;20071;-63
2024/02/19 17:26:30;;;;;;;16.63;13.98;;;;;;;;;;10419569;27;20073;-63
2024/02/19 17:31:29;;;;;;;16.77;12.98;;;;;;;;;;10421544;27;20519;-63
2024/02/19 17:36:28;;;;;;;19.17;13.68;;;;;;;;;;10419894;27;20275;-63
2024/02/19 17:41:27;;;;;;;13.50;11.63;;;;;;;;;;10419556;27;20082;-64
2024/02/19 17:46:27;;;;;;;13.00;11.30;;;;;;;;;;10417472;27;20516;-63
2024/02/19 17:51:28;;;;;;;13.88;12.38;;;;;;;;;;10417901;27;20487;-63
2024/02/19 17:56:30;;;;;;;17.60;13.57;;;;;;;;;;10416305;27;20071;-64
2024/02/19 18:01:28;;;;;;;22.95;14.70;;;;;;;;;;10420595;27;20097;-64
2024/02/19 18:06:27;;;;;;;18.65;13.45;;;;;;;;;;10420754;27;20513;-64
2024/02/19 18:11:25;;;;;;;17.83;13.23;;;;;;;;;;10421325;27;20086;-64
2024/02/19 18:16:25;;;;;;;19.08;15.57;;;;;;;;;;10419639;27;20073;-63
2024/02/19 18:21:23;;;;;;;21.38;18.85;;;;;;;;;;10421124;27;20079;-63
2024/02/19 18:26:24;;;;;;;49.78;32.15;;;;;;;;;;10418390;27;20082;-63
2024/02/19 18:31:22;;;;;;;17.73;13.57;;;;;;;;;;10417483;28;20075;-63
2024/02/19 18:36:22;;;;;;;17.60;14.18;;;;;;;;;;10421328;28;20081;-63
2024/02/19 18:41:20;;;;;;;11.23;10.07;;;;;;;;;;10418568;28;20079;-63
2024/02/19 18:46:18;;;;;;;18.23;14.63;;;;;;;;;;10420479;28;20075;-62
2024/02/19 18:51:17;;;;;;;18.02;11.55;;;;;;;;;;10421471;28;20063;-64
2024/02/19 18:56:16;;;;;;;16.02;11.43;;;;;;;;;;10413437;28;20074;-63
2024/02/19 19:01:14;;;;;;;20.35;15.48;;;;;;;;;;10417267;28;20066;-64
2024/02/19 19:06:13;;;;;;;15.80;12.98;;;;;;;;;;10416973;28;20059;-64
2024/02/19 19:11:11;;;;;;;15.32;13.30;;;;;;;;;;10413558;28;20071;-64
2024/02/19 19:16:11;;;;;;;13.05;11.45;;;;;;;;;;10422942;28;20059;-64
2024/02/19 19:21:09;;;;;;;14.13;12.32;;;;;;;;;;10421071;28;20085;-62
2024/02/19 19:26:08;;;;;;;16.58;13.82;;;;;;;;;;10418523;27;20074;-63
2024/02/19 19:31:06;;;;;;;38.83;23.80;;;;;;;;;;10405731;27;20063;-63
2024/02/19 19:36:06;;;;;;;16.33;11.50;;;;;;;;;;10416148;27;20067;-63
2024/02/19 19:41:08;;;;;;;14.68;12.27;;;;;;;;;;10428186;27;20129;-63
2024/02/19 19:46:07;;;;;;;13.65;11.60;;;;;;;;;;10404478;27;20074;-62
2024/02/19 19:51:07;;;;;;;15.35;12.65;;;;;;;;;;10426043;27;20097;-63
2024/02/19 19:56:07;;;;;;;20.02;12.43;;;;;;;;;;10426835;27;20066;-63
2024/02/19 20:01:08;;;;;;;16.63;14.80;;;;;;;;;;10427467;27;20077;-63
2024/02/19 20:06:08;;;;;;;21.58;13.48;;;;;;;;;;10428092;27;20075;-63
2024/02/19 20:11:06;;;;;;;18.65;14.82;;;;;;;;;;10421830;27;20082;-63
2024/02/19 20:16:05;;;;;;;21.77;17.25;;;;;;;;;;10426111;27;20051;-63
2024/02/19 20:21:04;;;;;;;17.73;13.25;;;;;;;;;;10427888;27;20083;-62
2024/02/19 20:26:04;;;;;;;18.58;16.20;;;;;;;;;;10428387;27;20070;-62
2024/02/19 20:31:05;;;;;;;22.20;15.85;;;;;;;;;;10424511;27;20062;-63
2024/02/19 20:36:04;;;;;;;17.70;14.63;;;;;;;;;;10418486;27;20077;-63
2024/02/19 20:41:04;;;;;;;22.55;17.98;;;;;;;;;;10401766;27;20089;-63
2024/02/19 20:46:02;;;;;;;21.35;17.75;;;;;;;;;;10411236;27;20066;-63
2024/02/19 20:51:01;;;;;;;23.23;16.42;;;;;;;;;;10419977;27;20066;-63
2024/02/19 20:56:00;;;;;;;18.27;15.93;;;;;;;;;;10419455;27;20534;-64
2024/02/19 21:01:00;;;;;;;22.13;16.98;;;;;;;;;;10418472;27;20480;-63
2024/02/19 21:05:58;;;;;;;22.13;18.23;;;;;;;;;;10420803;27;20456;-63
2024/02/19 21:11:01;;;;;;;22.55;17.85;;;;;;;;;;10418169;27;20066;-64
2024/02/19 21:16:02;;;;;;;17.67;15.45;;;;;;;;;;10417540;27;20073;-63
2024/02/19 21:21:01;;;;;;;18.55;13.38;;;;;;;;;;10420367;27;20534;-62
2024/02/19 21:25:59;;;;;;;13.55;11.45;;;;;;;;;;10417520;27;20070;-64
2024/02/19 21:31:00;;;;;;;14.85;12.20;;;;;;;;;;10419795;27;20638;-63
2024/02/19 21:35:59;;;;;;;13.45;12.02;;;;;;;;;;10418054;27;20069;-62
2024/02/19 21:41:00;;;;;;;12.45;11.00;;;;;;;;;;10401815;27;20086;-62
2024/02/19 21:45:59;;;;;;;15.85;11.48;;;;;;;;;;10418121;27;20309;-62
2024/02/19 21:50:59;;;;;;;14.07;11.85;;;;;;;;;;10421649;27;20070;-63
2024/02/19 21:55:57;;;;;;;16.60;13.60;;;;;;;;;;10408687;27;20078;-63
2024/02/19 22:00:55;;;;;;;21.45;16.38;;;;;;;;;;10418195;27;20074;-62
2024/02/19 22:05:54;;;;;;;16.23;13.68;;;;;;;;;;10416942;27;20500;-62
2024/02/19 22:10:54;;;;;;;16.92;12.73;;;;;;;;;;10417908;27;20077;-62
2024/02/19 22:15:53;;;;;;;14.68;12.43;;;;;;;;;;10422813;27;20070;-63
2024/02/19 22:20:52;;;;;;;15.50;11.10;;;;;;;;;;10413067;27;20087;-63
2024/02/19 22:25:50;;;;;;;14.02;12.25;;;;;;;;;;10418011;27;20059;-63
2024/02/19 22:30:50;;;;;;;25.05;15.85;;;;;;;;;;10418179;28;20080;-63
2024/02/19 22:35:48;;;;;;;26.60;21.17;;;;;;;;;;10418312;28;20461;-63
2024/02/19 22:40:46;;;;;;;36.45;29.50;;;;;;;;;;10415866;28;20081;-62
2024/02/19 22:45:45;;;;;;;44.30;31.10;;;;;;;;;;10417513;28;20063;-63
2024/02/19 22:50:44;;;;;;;41.38;28.75;;;;;;;;;;10411483;28;20526;-63
2024/02/19 22:55:42;;;;;;;42.13;28.35;;;;;;;;;;10417173;28;20073;-63
2024/02/19 23:00:45;;;;;;;54.45;36.63;;;;;;;;;;10422317;27;20075;-63
2024/02/19 23:05:44;;;;;;;38.45;27.40;;;;;;;;;;10422904;27;20101;-63
2024/02/19 23:10:43;;;;;;;30.23;25.40;;;;;;;;;;10421816;27;20075;-63
2024/02/19 23:15:41;;;;;;;38.10;23.25;;;;;;;;;;10420795;27;20077;-63
2024/02/19 23:20:39;;;;;;;23.25;17.27;;;;;;;;;;10422424;27;20493;-63
2024/02/19 23:25:40;;;;;;;22.55;18.63;;;;;;;;;;10419060;27;20070;-63
2024/02/19 23:30:38;;;;;;;26.02;19.50;;;;;;;;;;10419163;27;20071;-63
2024/02/19 23:35:37;;;;;;;25.05;17.42;;;;;;;;;;10421905;27;20070;-64
2024/02/19 23:40:35;;;;;;;21.15;16.55;;;;;;;;;;10422694;27;20082;-63
2024/02/19 23:45:35;;;;;;;26.30;20.40;;;;;;;;;;10421004;27;20075;-63
2024/02/19 23:50:33;;;;;;;13.90;11.55;;;;;;;;;;10417711;27;20083;-63
2024/02/19 23:55:31;;;;;;;16.08;11.55;;;;;;;;;;10421350;27;20074;-63
